createdAt,value
2022-08-25T00:02:55.276Z,21.85
2022-08-25T00:05:57.855Z,22.23
2022-08-25T00:09:00.050Z,22.42
2022-08-25T00:12:02.103Z,23.02
2022-08-25T00:15:04.391Z,21.92
2022-08-25T00:18:14.783Z,21.67
2022-08-25T00:21:21.823Z,22.26
2022-08-25T00:24:24.502Z,22.34
2022-08-25T00:27:26.672Z,21.69
2022-08-25T00:30:28.566Z,22.76
2022-08-25T00:33:31.258Z,23.11
2022-08-25T00:36:33.590Z,22.74
2022-08-25T00:39:35.786Z,23.24
2022-08-25T00:42:38.443Z,23.28
2022-08-25T00:45:40.595Z,22.96
2022-08-25T00:48:42.489Z,22.63
2022-08-25T00:51:48.010Z,22.63
2022-08-25T00:54:51.571Z,22.05
2022-08-25T00:57:58.532Z,22.04
2022-08-25T01:01:00.655Z,21.95
2022-08-25T01:04:02.734Z,22.20
2022-08-25T01:07:04.668Z,22.66
2022-08-25T01:10:07.976Z,23.27
2022-08-25T01:13:18.316Z,23.11
2022-08-25T01:16:20.203Z,23.34
2022-08-25T01:19:22.187Z,23.27
2022-08-25T01:22:26.705Z,23.15
2022-08-25T01:25:29.461Z,22.39
2022-08-25T01:28:31.518Z,22.64
2022-08-25T01:31:33.592Z,23.09
2022-08-25T01:34:38.222Z,23.31
2022-08-25T01:37:40.062Z,22.61
2022-08-25T01:40:42.966Z,22.25
2022-08-25T01:43:45.574Z,22.67
2022-08-25T01:46:47.406Z,22.87
2022-08-25T01:49:49.518Z,21.96
2022-08-25T01:52:51.331Z,22.86
2022-08-25T01:55:54.373Z,23.49
2022-08-25T01:58:56.851Z,23.56
2022-08-25T02:02:00.101Z,23.33
2022-08-25T02:05:02.128Z,23.02
2022-08-25T02:08:04.890Z,22.21
2022-08-25T02:11:07.005Z,21.59
2022-08-25T02:14:09.396Z,21.73
2022-08-25T02:17:11.261Z,21.35
2022-08-25T02:20:13.115Z,21.52
2022-08-25T02:23:15.015Z,21.37
2022-08-25T02:26:18.979Z,22.48
2022-08-25T02:29:20.814Z,22.56
2022-08-25T02:32:22.669Z,22.36
2022-08-25T02:35:24.554Z,22.31
2022-08-25T02:38:27.963Z,22.45
2022-08-25T02:41:31.225Z,22.97
2022-08-25T02:44:33.512Z,22.92
2022-08-25T02:47:36.877Z,21.70
2022-08-25T02:50:38.722Z,21.57
2022-08-25T02:53:41.803Z,22.06
2022-08-25T02:56:44.209Z,22.39
2022-08-25T02:59:48.394Z,21.92
2022-08-25T03:02:50.225Z,22.09
2022-08-25T03:05:52.074Z,22.09
2022-08-25T03:08:54.241Z,22.43
2022-08-25T03:11:56.091Z,22.74
2022-08-25T03:14:57.888Z,22.38
2022-08-25T03:18:02.292Z,22.64
2022-08-25T03:21:05.325Z,22.20
2022-08-25T03:24:07.249Z,22.25
2022-08-25T03:27:09.074Z,22.00
2022-08-25T03:30:11.486Z,21.44
2022-08-25T03:33:13.328Z,22.02
2022-08-25T03:36:15.418Z,21.59
2022-08-25T03:39:17.744Z,22.08
2022-08-25T03:42:19.886Z,21.30
2022-08-25T03:45:21.819Z,21.50
2022-08-25T03:48:23.631Z,21.22
2022-08-25T03:51:30.229Z,21.74
2022-08-25T03:54:32.081Z,21.65
2022-08-25T03:57:34.021Z,21.40
2022-08-25T04:00:35.933Z,21.27
2022-08-25T04:03:37.779Z,21.62
2022-08-25T04:06:40.361Z,21.53
2022-08-25T04:09:42.183Z,22.08
2022-08-25T04:12:44.185Z,21.61
2022-08-25T04:15:45.982Z,21.66
2022-08-25T04:18:48.192Z,21.64
2022-08-25T04:21:50.098Z,21.52
2022-08-25T04:24:51.922Z,22.29
2022-08-25T04:27:55.091Z,22.40
2022-08-25T04:30:56.913Z,22.13
2022-08-25T04:33:58.737Z,21.94
2022-08-25T04:37:01.774Z,21.77
2022-08-25T04:40:04.739Z,21.67
2022-08-25T04:43:06.618Z,22.03
2022-08-25T04:46:09.377Z,22.17
2022-08-25T04:49:12.015Z,21.97
2022-08-25T04:52:14.429Z,22.24
2022-08-25T04:55:18.331Z,22.36
2022-08-25T04:58:20.130Z,22.92
2022-08-25T05:01:22.989Z,23.14
2022-08-25T05:04:28.442Z,23.82
2022-08-25T05:07:30.818Z,23.78
2022-08-25T05:10:33.438Z,24.24
2022-08-25T05:13:35.416Z,25.35
2022-08-25T05:16:37.342Z,26.37
2022-08-25T05:19:39.304Z,26.78
2022-08-25T05:22:43.896Z,26.87
2022-08-25T05:25:45.772Z,27.72
2022-08-25T05:28:51.525Z,26.63
2022-08-25T05:31:53.975Z,27.02
2022-08-25T05:34:55.879Z,26.94
2022-08-25T05:37:57.857Z,27.46
2022-08-25T05:41:00.602Z,28.66
2022-08-25T05:44:02.528Z,28.37
2022-08-25T05:47:04.396Z,28.83
2022-08-25T05:50:06.762Z,28.66
2022-08-25T05:53:08.588Z,29.84
2022-08-25T05:56:10.780Z,27.59
2022-08-25T05:59:12.727Z,27.63
2022-08-25T06:02:35.457Z,29.25
2022-08-25T06:05:37.332Z,29.30
2022-08-25T06:08:39.381Z,29.84
2022-08-25T06:11:43.034Z,30.06
2022-08-25T06:14:45.230Z,30.63
2022-08-25T06:17:48.048Z,29.99
2022-08-25T06:20:49.940Z,29.48
2022-08-25T06:23:51.871Z,31.41
2022-08-25T06:26:54.901Z,31.11
2022-08-25T06:29:56.974Z,31.53
2022-08-25T06:33:02.268Z,31.54
2022-08-25T06:36:04.442Z,31.90
2022-08-25T06:39:06.345Z,29.88
2022-08-25T06:42:08.315Z,30.14
2022-08-25T06:45:10.219Z,32.49
2022-08-25T06:48:12.144Z,32.87
2022-08-25T06:51:15.150Z,30.59
2022-08-25T06:54:16.993Z,32.69
2022-08-25T06:57:18.955Z,33.28
2022-08-25T07:00:20.865Z,33.22
2022-08-25T07:06:25.134Z,33.06
2022-08-25T07:09:27.030Z,31.93
2022-08-25T07:12:29.037Z,32.82
2022-08-25T07:15:30.869Z,33.82
2022-08-25T07:18:34.812Z,32.79
2022-08-25T07:21:37.603Z,32.04
2022-08-25T07:24:39.438Z,32.39
2022-08-25T07:27:41.386Z,32.43
2022-08-25T07:30:44.751Z,33.73
2022-08-25T07:34:12.390Z,35.04
2022-08-25T07:37:23.745Z,32.04
2022-08-25T07:40:37.837Z,33.49
2022-08-25T07:43:44.866Z,33.03
2022-08-25T07:46:50.212Z,34.30
2022-08-25T07:49:52.603Z,35.64
2022-08-25T07:52:55.322Z,34.25
2022-08-25T07:55:57.623Z,34.11
2022-08-25T07:58:59.877Z,34.57
2022-08-25T08:02:01.811Z,34.91
2022-08-25T08:05:03.913Z,35.07
2022-08-25T08:08:06.183Z,33.96
2022-08-25T08:11:09.624Z,34.71
2022-08-25T08:14:11.768Z,34.56
2022-08-25T08:17:13.830Z,34.60
2022-08-25T08:20:16.326Z,36.93
2022-08-25T08:23:27.782Z,33.98
2022-08-25T08:26:55.325Z,35.05
2022-08-25T08:29:53.830Z,34.10
2022-08-25T08:33:12.517Z,37.74
2022-08-25T08:36:19.029Z,36.08
2022-08-25T08:39:22.423Z,37.86
2022-08-25T08:42:53.173Z,36.85
2022-08-25T08:45:55.040Z,37.75
2022-08-25T08:49:06.820Z,36.74
2022-08-25T08:52:09.301Z,34.96
2022-08-25T08:55:27.983Z,35.41
2022-08-25T08:58:50.089Z,38.47
2022-08-25T09:01:59.335Z,38.12
2022-08-25T09:05:03.957Z,39.59
2022-08-25T09:08:07.391Z,35.29
2022-08-25T09:11:16.424Z,35.94
2022-08-25T09:14:36.118Z,38.03
2022-08-25T09:18:07.338Z,37.70
2022-08-25T09:21:17.754Z,36.69
2022-08-25T09:24:38.460Z,39.01
2022-08-25T09:27:41.115Z,40.09
2022-08-25T09:30:44.241Z,38.44
2022-08-25T09:33:46.140Z,38.43
2022-08-25T09:36:50.940Z,40.10
2022-08-25T09:39:57.373Z,38.00
2022-08-25T09:43:02.038Z,37.40
2022-08-25T09:46:05.378Z,37.27
2022-08-25T09:49:12.104Z,37.97
2022-08-25T09:52:23.037Z,37.60
2022-08-25T09:55:32.665Z,39.44
2022-08-25T09:58:34.596Z,41.00
2022-08-25T10:01:36.601Z,37.26
2022-08-25T10:04:39.975Z,40.34
2022-08-25T10:07:51.892Z,39.21
2022-08-25T10:10:55.094Z,37.92
2022-08-25T10:14:02.568Z,36.56
2022-08-25T10:17:29.518Z,38.40
2022-08-25T10:20:33.108Z,41.25
2022-08-25T10:23:48.036Z,41.54
2022-08-25T10:26:55.948Z,39.15
2022-08-25T10:30:00.794Z,39.64
2022-08-25T10:33:07.879Z,37.26
2022-08-25T10:36:13.439Z,37.79
2022-08-25T10:39:40.619Z,35.25
2022-08-25T10:42:45.827Z,36.77
2022-08-25T10:45:54.393Z,35.99
2022-08-25T10:49:04.539Z,36.47
2022-08-25T10:52:30.732Z,36.87
2022-08-25T10:55:40.608Z,35.62
2022-08-25T10:58:42.427Z,34.35
2022-08-25T11:02:03.443Z,34.01
2022-08-25T11:05:10.448Z,34.31
2022-08-25T11:08:25.744Z,34.39
2022-08-25T11:11:36.168Z,36.13
2022-08-25T11:14:52.262Z,36.45
2022-08-25T11:17:55.926Z,35.99
2022-08-25T11:21:01.649Z,34.83
2022-08-25T11:24:11.052Z,35.90
2022-08-25T11:27:16.193Z,34.12
2022-08-25T11:30:19.895Z,34.72
2022-08-25T11:33:23.268Z,34.68
2022-08-25T11:36:33.157Z,37.41
2022-08-25T11:39:35.737Z,38.79
2022-08-25T11:42:37.639Z,39.74
2022-08-25T11:45:40.257Z,39.22
2022-08-25T11:48:42.809Z,38.21
2022-08-25T11:51:46.912Z,37.84
2022-08-25T11:54:50.479Z,39.43
2022-08-25T11:57:54.073Z,38.34
2022-08-25T12:00:56.889Z,38.79
2022-08-25T12:04:17.985Z,39.26
2022-08-25T12:07:21.955Z,38.99
2022-08-25T12:10:25.097Z,41.53
2022-08-25T12:13:46.003Z,40.66
2022-08-25T12:16:51.028Z,40.69
2022-08-25T12:19:55.482Z,41.40
2022-08-25T12:22:59.199Z,41.54
2022-08-25T12:26:19.675Z,39.37
2022-08-25T12:29:27.320Z,40.04
2022-08-25T12:32:34.985Z,41.20
2022-08-25T12:35:41.919Z,39.80
2022-08-25T12:38:49.607Z,36.95
2022-08-25T12:41:55.629Z,39.00
2022-08-25T12:45:16.709Z,39.79
2022-08-25T12:48:28.146Z,42.65
2022-08-25T12:51:33.033Z,40.95
2022-08-25T12:54:38.097Z,41.62
2022-08-25T12:57:51.618Z,41.90
2022-08-25T13:01:32.996Z,39.74
2022-08-25T13:04:38.715Z,39.07
2022-08-25T13:08:03.409Z,36.48
2022-08-25T13:11:10.390Z,36.71
2022-08-25T13:14:20.915Z,36.29
2022-08-25T13:17:33.694Z,35.97
2022-08-25T13:20:36.056Z,35.52
2022-08-25T13:23:39.589Z,34.28
2022-08-25T13:26:48.534Z,34.72
2022-08-25T13:29:56.062Z,35.52
2022-08-25T13:32:59.933Z,35.23
2022-08-25T13:36:21.069Z,35.01
2022-08-25T13:39:39.013Z,35.39
2022-08-25T13:42:53.042Z,34.88
2022-08-25T13:45:57.886Z,34.80
2022-08-25T13:49:05.042Z,34.77
2022-08-25T13:52:07.372Z,35.40
2022-08-25T13:55:11.708Z,34.30
2022-08-25T13:58:15.803Z,34.47
2022-08-25T14:01:48.635Z,34.00
2022-08-25T14:04:52.907Z,33.66
2022-08-25T14:08:15.751Z,33.40
2022-08-25T14:11:29.867Z,34.24
2022-08-25T14:14:33.877Z,33.56
2022-08-25T14:17:40.139Z,34.22
2022-08-25T14:20:46.995Z,33.80
2022-08-25T14:23:49.008Z,33.93
2022-08-25T14:26:53.748Z,34.43
2022-08-25T14:29:56.702Z,33.83
2022-08-25T14:32:58.923Z,34.01
2022-08-25T14:36:05.532Z,34.18
2022-08-25T14:39:08.652Z,33.39
2022-08-25T14:42:12.292Z,33.86
2022-08-25T14:45:16.040Z,33.46
2022-08-25T14:48:22.085Z,34.19
2022-08-25T14:51:24.837Z,34.16
2022-08-25T14:54:27.331Z,33.50
2022-08-25T14:57:29.553Z,34.50
2022-08-25T15:00:31.793Z,32.96
2022-08-25T15:03:36.171Z,33.27
2022-08-25T15:06:42.252Z,33.71
2022-08-25T15:09:45.988Z,34.11
2022-08-25T15:12:51.092Z,34.15
2022-08-25T15:16:00.643Z,33.85
2022-08-25T15:19:08.804Z,33.10
2022-08-25T15:22:12.652Z,33.07
2022-08-25T15:25:15.893Z,32.82
2022-08-25T15:28:21.872Z,33.98
2022-08-25T15:31:25.123Z,33.92
2022-08-25T15:34:29.860Z,33.67
2022-08-25T15:37:32.198Z,33.67
2022-08-25T15:40:35.519Z,33.77
2022-08-25T15:43:37.986Z,33.82
2022-08-25T15:46:40.711Z,33.36
2022-08-25T15:49:43.413Z,32.86
2022-08-25T15:52:47.581Z,33.12
2022-08-25T15:55:52.358Z,33.78
2022-08-25T15:58:56.615Z,33.63
2022-08-25T16:01:59.490Z,33.50
2022-08-25T16:05:01.952Z,33.19
2022-08-25T16:08:04.566Z,33.48
2022-08-25T16:11:07.354Z,33.67
2022-08-25T16:14:09.510Z,33.19
2022-08-25T16:17:13.189Z,33.39
2022-08-25T16:20:16.124Z,32.83
2022-08-25T16:23:18.853Z,33.05
2022-08-25T16:26:20.960Z,32.92
2022-08-25T16:29:23.124Z,33.12
2022-08-25T16:32:26.094Z,33.34
2022-08-25T16:35:28.475Z,32.82
2022-08-25T16:38:31.487Z,32.79
2022-08-25T16:41:36.775Z,32.75
2022-08-25T16:44:40.370Z,33.07
2022-08-25T16:47:43.535Z,32.58
2022-08-25T16:50:45.692Z,32.56
2022-08-25T16:54:09.221Z,32.39
2022-08-25T16:57:12.401Z,32.39
2022-08-25T17:00:15.813Z,31.83
2022-08-25T17:03:17.798Z,31.75
2022-08-25T17:06:20.804Z,32.19
2022-08-25T17:09:24.277Z,31.58
2022-08-25T17:12:26.856Z,32.04
2022-08-25T17:15:29.089Z,31.56
2022-08-25T17:18:31.508Z,31.78
2022-08-25T17:21:35.621Z,31.08
2022-08-25T17:24:40.547Z,31.44
2022-08-25T17:27:43.550Z,31.22
2022-08-25T17:30:45.940Z,30.98
2022-08-25T17:33:48.087Z,31.34
2022-08-25T17:36:51.400Z,31.51
2022-08-25T17:39:56.701Z,30.78
2022-08-25T17:43:05.170Z,30.90
2022-08-25T17:46:12.506Z,30.08
2022-08-25T17:49:15.865Z,30.29
2022-08-25T17:52:25.603Z,30.33
2022-08-25T17:55:27.954Z,30.69
2022-08-25T17:58:30.486Z,31.11
2022-08-25T18:01:33.701Z,30.56
2022-08-25T18:04:36.599Z,30.31
2022-08-25T18:07:40.065Z,30.65
2022-08-25T18:10:45.371Z,30.58
2022-08-25T18:13:47.783Z,30.42
2022-08-25T18:16:53.975Z,30.26
2022-08-25T18:19:56.877Z,30.12
2022-08-25T18:22:59.514Z,30.15
2022-08-25T18:26:02.863Z,30.11
2022-08-25T18:29:05.159Z,30.14
2022-08-25T18:32:07.559Z,30.28
2022-08-25T18:35:10.144Z,29.60
2022-08-25T18:38:31.081Z,29.71
2022-08-25T18:41:34.522Z,30.26
2022-08-25T18:44:36.498Z,29.91
2022-08-25T18:47:38.687Z,29.40
2022-08-25T18:50:41.427Z,30.19
2022-08-25T18:53:49.978Z,29.38
2022-08-25T18:56:53.352Z,29.51
2022-08-25T18:59:56.164Z,30.15
2022-08-25T19:02:59.546Z,29.58
2022-08-25T19:06:02.947Z,29.80
2022-08-25T19:09:05.026Z,30.03
2022-08-25T19:12:07.150Z,29.60
2022-08-25T19:15:14.622Z,30.08
2022-08-25T19:18:17.217Z,29.42
2022-08-25T19:21:22.511Z,29.64
2022-08-25T19:24:25.607Z,29.27
2022-08-25T19:27:28.950Z,30.10
2022-08-25T19:30:31.152Z,29.79
2022-08-25T19:33:44.873Z,30.15
2022-08-25T19:36:47.594Z,30.10
2022-08-25T19:39:54.236Z,29.99
2022-08-25T19:42:56.459Z,29.97
2022-08-25T19:45:58.576Z,29.84
2022-08-25T19:49:07.912Z,30.11
2022-08-25T19:52:11.580Z,30.02
2022-08-25T19:55:14.078Z,29.18
2022-08-25T19:58:16.147Z,29.24
2022-08-25T20:01:20.551Z,29.95
2022-08-25T20:04:24.119Z,29.75
2022-08-25T20:07:29.148Z,29.28
2022-08-25T20:10:31.925Z,28.60
2022-08-25T20:13:38.015Z,29.09
2022-08-25T20:16:40.295Z,28.49
2022-08-25T20:19:43.205Z,28.70
2022-08-25T20:22:46.736Z,28.10
2022-08-25T20:25:51.868Z,28.54
2022-08-25T20:28:55.740Z,28.40
2022-08-25T20:31:57.983Z,28.21
2022-08-25T20:35:00.585Z,28.88
2022-08-25T20:38:02.494Z,28.49
2022-08-25T20:41:04.658Z,28.22
2022-08-25T20:44:06.894Z,28.62
2022-08-25T20:47:10.493Z,28.46
2022-08-25T20:50:13.101Z,28.34
2022-08-25T20:53:17.080Z,28.49
2022-08-25T20:56:20.598Z,28.76
2022-08-25T20:59:23.434Z,28.73
2022-08-25T21:02:25.918Z,28.52
2022-08-25T21:05:27.990Z,28.52
2022-08-25T21:08:30.318Z,28.56
2022-08-25T21:11:33.179Z,28.41
2022-08-25T21:14:37.782Z,28.38
2022-08-25T21:17:39.925Z,27.84
2022-08-25T21:20:42.711Z,27.88
2022-08-25T21:23:45.512Z,28.36
2022-08-25T21:26:49.215Z,28.47
2022-08-25T21:29:55.043Z,28.05
2022-08-25T21:32:57.672Z,27.94
2022-08-25T21:35:59.731Z,27.30
2022-08-25T21:39:01.660Z,27.12
2022-08-25T21:42:04.087Z,28.01
2022-08-25T21:45:11.214Z,28.32
2022-08-25T21:48:13.847Z,27.25
2022-08-25T21:51:17.398Z,28.20
2022-08-25T21:54:24.092Z,27.85
2022-08-25T21:57:26.458Z,28.12
2022-08-25T22:00:28.530Z,27.76
2022-08-25T22:03:30.533Z,28.31
2022-08-25T22:06:33.876Z,28.38
2022-08-25T22:09:35.871Z,27.63
2022-08-25T22:12:38.273Z,27.74
2022-08-25T22:15:41.425Z,27.71
2022-08-25T22:18:44.239Z,27.72
2022-08-25T22:21:46.402Z,26.90
2022-08-25T22:24:50.631Z,26.59
2022-08-25T22:27:57.049Z,26.72
2022-08-25T22:31:02.878Z,26.85
2022-08-25T22:34:04.905Z,27.38
2022-08-25T22:37:07.930Z,27.97
2022-08-25T22:40:10.759Z,27.68
2022-08-25T22:43:12.985Z,27.69
2022-08-25T22:46:15.298Z,27.50
2022-08-25T22:49:19.317Z,27.51
2022-08-25T22:52:33.312Z,27.63
2022-08-25T22:55:41.483Z,27.30
2022-08-25T22:58:44.086Z,27.29
2022-08-25T23:01:54.698Z,27.16
2022-08-25T23:04:57.321Z,26.71
2022-08-25T23:08:00.074Z,27.06
2022-08-25T23:11:02.299Z,27.13
2022-08-25T23:14:06.521Z,26.84
2022-08-25T23:17:08.912Z,26.47
2022-08-25T23:20:29.543Z,26.57
2022-08-25T23:23:36.185Z,26.97
2022-08-25T23:26:41.980Z,26.67
2022-08-25T23:29:46.333Z,26.52
2022-08-25T23:32:48.697Z,26.63
2022-08-25T23:36:02.448Z,26.28
2022-08-25T23:39:04.844Z,26.39
2022-08-25T23:42:09.984Z,26.55
2022-08-25T23:45:12.881Z,26.81
2022-08-25T23:48:15.367Z,26.93
2022-08-25T23:51:25.076Z,26.88
2022-08-25T23:54:31.128Z,26.46
2022-08-25T23:57:33.869Z,26.56
